sensor_id;sensor_type;location;lat;lon;timestamp;P1;durP1;ratioP1;P2;durP2;ratioP2
73130;SDS011;64204;13.766;100.702;2022-12-10T00:01:33;14.40;;;9.35;;
73130;SDS011;64204;13.766;100.702;2022-12-10T00:04:00;17.23;;;9.68;;
73130;SDS011;64204;13.766;100.702;2022-12-10T00:06:29;17.98;;;10.77;;
73130;SDS011;64204;13.766;100.702;2022-12-10T00:08:58;23.52;;;13.55;;
73130;SDS011;64204;13.766;100.702;2022-12-10T00:11:25;17.50;;;9.60;;
73130;SDS011;64204;13.766;100.702;2022-12-10T00:13:53;19.50;;;10.57;;
73130;SDS011;64204;13.766;100.702;2022-12-10T00:16:20;26.63;;;11.75;;
73130;SDS011;64204;13.766;100.702;2022-12-10T00:18:48;24.33;;;12.05;;
73130;SDS011;64204;13.766;100.702;2022-12-10T00:21:17;17.27;;;10.38;;
73130;SDS011;64204;13.766;100.702;2022-12-10T00:23:45;16.75;;;9.20;;
73130;SDS011;64204;13.766;100.702;2022-12-10T00:26:14;16.33;;;9.80;;
73130;SDS011;64204;13.766;100.702;2022-12-10T00:28:43;15.80;;;9.77;;
73130;SDS011;64204;13.766;100.702;2022-12-10T00:31:11;18.38;;;8.95;;
73130;SDS011;64204;13.766;100.702;2022-12-10T00:33:40;21.33;;;10.48;;
73130;SDS011;64204;13.766;100.702;2022-12-10T00:36:08;16.25;;;9.60;;
73130;SDS011;64204;13.766;100.702;2022-12-10T00:38:37;13.43;;;8.32;;
73130;SDS011;64204;13.766;100.702;2022-12-10T00:41:04;19.05;;;8.52;;
73130;SDS011;64204;13.766;100.702;2022-12-10T00:43:31;13.77;;;8.48;;
73130;SDS011;64204;13.766;100.702;2022-12-10T00:45:59;15.60;;;8.32;;
73130;SDS011;64204;13.766;100.702;2022-12-10T00:48:25;13.55;;;7.90;;
73130;SDS011;64204;13.766;100.702;2022-12-10T00:53:41;15.27;;;8.10;;
73130;SDS011;64204;13.766;100.702;2022-12-10T00:56:09;13.57;;;7.63;;
73130;SDS011;64204;13.766;100.702;2022-12-10T00:58:37;13.43;;;7.85;;
73130;SDS011;64204;13.766;100.702;2022-12-10T01:04:06;17.83;;;8.25;;
73130;SDS011;64204;13.766;100.702;2022-12-10T01:06:36;14.85;;;8.60;;
73130;SDS011;64204;13.766;100.702;2022-12-10T01:09:09;15.68;;;7.97;;
73130;SDS011;64204;13.766;100.702;2022-12-10T01:11:38;12.10;;;7.63;;
73130;SDS011;64204;13.766;100.702;2022-12-10T01:16:33;11.57;;;8.80;;
73130;SDS011;64204;13.766;100.702;2022-12-10T01:19:00;14.13;;;8.30;;
73130;SDS011;64204;13.766;100.702;2022-12-10T01:21:27;12.35;;;7.82;;
73130;SDS011;64204;13.766;100.702;2022-12-10T01:23:55;11.45;;;6.57;;
73130;SDS011;64204;13.766;100.702;2022-12-10T01:26:24;11.00;;;5.75;;
73130;SDS011;64204;13.766;100.702;2022-12-10T01:28:52;15.98;;;6.43;;
73130;SDS011;64204;13.766;100.702;2022-12-10T01:31:21;10.77;;;6.03;;
73130;SDS011;64204;13.766;100.702;2022-12-10T01:33:49;8.93;;;4.68;;
73130;SDS011;64204;13.766;100.702;2022-12-10T01:36:18;8.05;;;5.20;;
73130;SDS011;64204;13.766;100.702;2022-12-10T01:38:46;10.13;;;5.45;;
73130;SDS011;64204;13.766;100.702;2022-12-10T01:41:15;7.75;;;5.40;;
73130;SDS011;64204;13.766;100.702;2022-12-10T01:46:50;12.23;;;6.22;;
73130;SDS011;64204;13.766;100.702;2022-12-10T01:49:26;8.80;;;5.63;;
73130;SDS011;64204;13.766;100.702;2022-12-10T01:52:02;9.32;;;6.53;;
73130;SDS011;64204;13.766;100.702;2022-12-10T01:54:31;11.30;;;6.15;;
73130;SDS011;64204;13.766;100.702;2022-12-10T01:57:09;9.00;;;4.57;;
73130;SDS011;64204;13.766;100.702;2022-12-10T01:59:46;9.93;;;4.53;;
73130;SDS011;64204;13.766;100.702;2022-12-10T02:02:23;6.03;;;4.00;;
73130;SDS011;64204;13.766;100.702;2022-12-10T02:05:22;7.38;;;5.10;;
73130;SDS011;64204;13.766;100.702;2022-12-10T02:08:08;8.02;;;4.50;;
73130;SDS011;64204;13.766;100.702;2022-12-10T02:17:01;7.57;;;4.57;;
73130;SDS011;64204;13.766;100.702;2022-12-10T02:22:23;7.63;;;5.10;;
73130;SDS011;64204;13.766;100.702;2022-12-10T02:24:56;11.25;;;6.47;;
73130;SDS011;64204;13.766;100.702;2022-12-10T02:27:28;8.23;;;5.47;;
73130;SDS011;64204;13.766;100.702;2022-12-10T02:30:15;9.93;;;5.32;;
73130;SDS011;64204;13.766;100.702;2022-12-10T02:32:43;11.43;;;5.25;;
73130;SDS011;64204;13.766;100.702;2022-12-10T02:35:20;11.52;;;6.15;;
73130;SDS011;64204;13.766;100.702;2022-12-10T02:37:51;10.27;;;5.85;;
73130;SDS011;64204;13.766;100.702;2022-12-10T02:40:26;12.40;;;6.53;;
73130;SDS011;64204;13.766;100.702;2022-12-10T02:42:57;9.45;;;5.65;;
73130;SDS011;64204;13.766;100.702;2022-12-10T02:45:24;9.20;;;6.05;;
73130;SDS011;64204;13.766;100.702;2022-12-10T02:47:54;14.30;;;7.35;;
73130;SDS011;64204;13.766;100.702;2022-12-10T02:50:23;10.60;;;6.22;;
73130;SDS011;64204;13.766;100.702;2022-12-10T02:52:50;14.23;;;5.60;;
73130;SDS011;64204;13.766;100.702;2022-12-10T02:55:17;7.45;;;4.80;;
73130;SDS011;64204;13.766;100.702;2022-12-10T03:00:50;13.35;;;6.22;;
73130;SDS011;64204;13.766;100.702;2022-12-10T03:06:21;9.63;;;4.82;;
73130;SDS011;64204;13.766;100.702;2022-12-10T03:09:08;7.95;;;4.72;;
73130;SDS011;64204;13.766;100.702;2022-12-10T03:11:42;8.82;;;5.13;;
73130;SDS011;64204;13.766;100.702;2022-12-10T03:14:12;9.23;;;4.70;;
73130;SDS011;64204;13.766;100.702;2022-12-10T03:16:49;7.47;;;4.63;;
73130;SDS011;64204;13.766;100.702;2022-12-10T03:19:28;10.40;;;5.57;;
73130;SDS011;64204;13.766;100.702;2022-12-10T03:22:06;8.30;;;5.38;;
73130;SDS011;64204;13.766;100.702;2022-12-10T03:24:37;11.98;;;5.60;;
73130;SDS011;64204;13.766;100.702;2022-12-10T03:27:13;8.60;;;4.68;;
73130;SDS011;64204;13.766;100.702;2022-12-10T03:29:44;7.25;;;4.78;;
73130;SDS011;64204;13.766;100.702;2022-12-10T03:32:14;11.13;;;5.22;;
73130;SDS011;64204;13.766;100.702;2022-12-10T03:34:42;9.43;;;5.03;;
73130;SDS011;64204;13.766;100.702;2022-12-10T03:37:13;6.97;;;4.38;;
73130;SDS011;64204;13.766;100.702;2022-12-10T03:39:40;8.20;;;4.68;;
73130;SDS011;64204;13.766;100.702;2022-12-10T03:42:09;8.02;;;4.85;;
73130;SDS011;64204;13.766;100.702;2022-12-10T03:47:12;8.13;;;4.75;;
73130;SDS011;64204;13.766;100.702;2022-12-10T03:49:41;8.75;;;4.72;;
73130;SDS011;64204;13.766;100.702;2022-12-10T03:52:14;6.72;;;4.30;;
73130;SDS011;64204;13.766;100.702;2022-12-10T03:54:41;12.30;;;4.75;;
73130;SDS011;64204;13.766;100.702;2022-12-10T03:57:08;8.75;;;4.75;;
73130;SDS011;64204;13.766;100.702;2022-12-10T03:59:35;5.35;;;3.88;;
73130;SDS011;64204;13.766;100.702;2022-12-10T04:02:01;8.65;;;4.47;;
73130;SDS011;64204;13.766;100.702;2022-12-10T04:04:32;7.57;;;4.18;;
73130;SDS011;64204;13.766;100.702;2022-12-10T04:07:01;6.82;;;4.40;;
73130;SDS011;64204;13.766;100.702;2022-12-10T04:09:28;7.47;;;4.60;;
73130;SDS011;64204;13.766;100.702;2022-12-10T04:11:58;6.93;;;4.18;;
73130;SDS011;64204;13.766;100.702;2022-12-10T04:14:30;7.82;;;3.80;;
73130;SDS011;64204;13.766;100.702;2022-12-10T04:17:22;5.18;;;3.70;;
73130;SDS011;64204;13.766;100.702;2022-12-10T04:19:52;7.75;;;4.18;;
73130;SDS011;64204;13.766;100.702;2022-12-10T04:22:25;7.65;;;4.53;;
73130;SDS011;64204;13.766;100.702;2022-12-10T04:25:11;9.32;;;4.45;;
73130;SDS011;64204;13.766;100.702;2022-12-10T04:28:00;9.30;;;4.88;;
73130;SDS011;64204;13.766;100.702;2022-12-10T04:30:30;8.65;;;4.85;;
73130;SDS011;64204;13.766;100.702;2022-12-10T04:32:57;9.68;;;4.63;;
73130;SDS011;64204;13.766;100.702;2022-12-10T04:35:26;10.38;;;4.45;;
73130;SDS011;64204;13.766;100.702;2022-12-10T04:37:53;5.75;;;3.70;;
73130;SDS011;64204;13.766;100.702;2022-12-10T04:40:20;6.50;;;4.45;;
73130;SDS011;64204;13.766;100.702;2022-12-10T04:42:49;6.28;;;4.32;;
73130;SDS011;64204;13.766;100.702;2022-12-10T04:45:15;6.40;;;4.43;;
73130;SDS011;64204;13.766;100.702;2022-12-10T04:47:50;5.93;;;3.90;;
73130;SDS011;64204;13.766;100.702;2022-12-10T04:50:17;5.60;;;3.50;;
73130;SDS011;64204;13.766;100.702;2022-12-10T04:52:44;6.80;;;3.60;;
73130;SDS011;64204;13.766;100.702;2022-12-10T04:55:10;8.00;;;3.80;;
73130;SDS011;64204;13.766;100.702;2022-12-10T04:57:37;7.72;;;3.50;;
73130;SDS011;64204;13.766;100.702;2022-12-10T05:00:04;5.13;;;3.38;;
73130;SDS011;64204;13.766;100.702;2022-12-10T05:02:31;5.93;;;3.92;;
73130;SDS011;64204;13.766;100.702;2022-12-10T05:04:58;5.68;;;3.13;;
73130;SDS011;64204;13.766;100.702;2022-12-10T05:07:25;4.85;;;3.22;;
73130;SDS011;64204;13.766;100.702;2022-12-10T05:09:52;4.70;;;3.53;;
73130;SDS011;64204;13.766;100.702;2022-12-10T05:12:18;7.07;;;3.85;;
73130;SDS011;64204;13.766;100.702;2022-12-10T05:14:45;6.65;;;3.47;;
73130;SDS011;64204;13.766;100.702;2022-12-10T05:17:15;5.68;;;3.90;;
73130;SDS011;64204;13.766;100.702;2022-12-10T05:19:42;5.93;;;3.83;;
73130;SDS011;64204;13.766;100.702;2022-12-10T05:22:09;6.18;;;3.70;;
73130;SDS011;64204;13.766;100.702;2022-12-10T05:27:30;6.78;;;3.38;;
73130;SDS011;64204;13.766;100.702;2022-12-10T05:29:58;5.32;;;3.70;;
73130;SDS011;64204;13.766;100.702;2022-12-10T05:32:24;5.38;;;3.15;;
73130;SDS011;64204;13.766;100.702;2022-12-10T05:34:51;6.32;;;3.40;;
73130;SDS011;64204;13.766;100.702;2022-12-10T05:37:18;4.53;;;3.28;;
73130;SDS011;64204;13.766;100.702;2022-12-10T05:39:44;5.43;;;3.13;;
73130;SDS011;64204;13.766;100.702;2022-12-10T05:42:11;4.75;;;4.03;;
73130;SDS011;64204;13.766;100.702;2022-12-10T05:44:38;8.35;;;4.10;;
73130;SDS011;64204;13.766;100.702;2022-12-10T05:47:05;11.40;;;4.25;;
73130;SDS011;64204;13.766;100.702;2022-12-10T05:49:31;8.63;;;3.88;;
73130;SDS011;64204;13.766;100.702;2022-12-10T05:51:58;8.63;;;3.88;;
73130;SDS011;64204;13.766;100.702;2022-12-10T05:54:25;8.13;;;4.28;;
73130;SDS011;64204;13.766;100.702;2022-12-10T05:56:51;5.55;;;4.00;;
73130;SDS011;64204;13.766;100.702;2022-12-10T05:59:19;5.15;;;3.85;;
73130;SDS011;64204;13.766;100.702;2022-12-10T06:01:45;7.32;;;3.67;;
73130;SDS011;64204;13.766;100.702;2022-12-10T06:04:12;5.32;;;3.45;;
73130;SDS011;64204;13.766;100.702;2022-12-10T06:06:45;5.07;;;3.40;;
73130;SDS011;64204;13.766;100.702;2022-12-10T06:09:13;10.10;;;4.10;;
73130;SDS011;64204;13.766;100.702;2022-12-10T06:11:42;5.97;;;3.60;;
73130;SDS011;64204;13.766;100.702;2022-12-10T06:14:11;6.40;;;3.20;;
73130;SDS011;64204;13.766;100.702;2022-12-10T06:16:38;9.00;;;3.65;;
73130;SDS011;64204;13.766;100.702;2022-12-10T06:19:06;5.35;;;3.72;;
73130;SDS011;64204;13.766;100.702;2022-12-10T06:21:32;5.40;;;4.13;;
73130;SDS011;64204;13.766;100.702;2022-12-10T06:24:00;5.97;;;3.92;;
73130;SDS011;64204;13.766;100.702;2022-12-10T06:26:29;5.75;;;3.45;;
73130;SDS011;64204;13.766;100.702;2022-12-10T06:28:56;6.30;;;4.18;;
73130;SDS011;64204;13.766;100.702;2022-12-10T06:31:23;4.45;;;3.40;;
73130;SDS011;64204;13.766;100.702;2022-12-10T06:33:53;5.93;;;3.42;;
73130;SDS011;64204;13.766;100.702;2022-12-10T06:36:20;5.47;;;3.50;;
73130;SDS011;64204;13.766;100.702;2022-12-10T06:38:52;4.88;;;3.75;;
73130;SDS011;64204;13.766;100.702;2022-12-10T06:41:19;4.78;;;3.63;;
73130;SDS011;64204;13.766;100.702;2022-12-10T06:43:46;6.95;;;3.72;;
73130;SDS011;64204;13.766;100.702;2022-12-10T06:46:14;5.00;;;4.00;;
73130;SDS011;64204;13.766;100.702;2022-12-10T06:48:42;7.68;;;4.40;;
73130;SDS011;64204;13.766;100.702;2022-12-10T06:51:10;7.70;;;4.80;;
73130;SDS011;64204;13.766;100.702;2022-12-10T06:53:40;6.85;;;4.63;;
73130;SDS011;64204;13.766;100.702;2022-12-10T06:56:07;8.98;;;5.35;;
73130;SDS011;64204;13.766;100.702;2022-12-10T06:58:38;6.90;;;4.57;;
73130;SDS011;64204;13.766;100.702;2022-12-10T07:01:08;9.45;;;5.07;;
73130;SDS011;64204;13.766;100.702;2022-12-10T07:03:37;7.60;;;4.60;;
73130;SDS011;64204;13.766;100.702;2022-12-10T07:06:05;6.60;;;3.92;;
73130;SDS011;64204;13.766;100.702;2022-12-10T07:10:59;6.97;;;4.03;;
73130;SDS011;64204;13.766;100.702;2022-12-10T07:13:30;6.15;;;4.22;;
73130;SDS011;64204;13.766;100.702;2022-12-10T07:15:57;8.30;;;4.75;;
73130;SDS011;64204;13.766;100.702;2022-12-10T07:18:24;9.50;;;5.35;;
73130;SDS011;64204;13.766;100.702;2022-12-10T07:20:51;8.70;;;5.03;;
73130;SDS011;64204;13.766;100.702;2022-12-10T07:23:18;9.82;;;5.10;;
73130;SDS011;64204;13.766;100.702;2022-12-10T07:25:45;8.23;;;5.07;;
73130;SDS011;64204;13.766;100.702;2022-12-10T07:28:12;6.95;;;4.90;;
73130;SDS011;64204;13.766;100.702;2022-12-10T07:30:39;10.18;;;5.45;;
73130;SDS011;64204;13.766;100.702;2022-12-10T07:33:05;9.20;;;5.32;;
73130;SDS011;64204;13.766;100.702;2022-12-10T07:35:32;7.60;;;5.38;;
73130;SDS011;64204;13.766;100.702;2022-12-10T07:37:59;8.02;;;5.22;;
73130;SDS011;64204;13.766;100.702;2022-12-10T07:40:25;9.73;;;6.63;;
73130;SDS011;64204;13.766;100.702;2022-12-10T07:42:52;7.38;;;5.18;;
73130;SDS011;64204;13.766;100.702;2022-12-10T07:45:19;10.30;;;6.30;;
73130;SDS011;64204;13.766;100.702;2022-12-10T07:47:46;9.35;;;5.68;;
73130;SDS011;64204;13.766;100.702;2022-12-10T07:50:12;11.60;;;6.30;;
73130;SDS011;64204;13.766;100.702;2022-12-10T07:52:39;8.90;;;6.35;;
73130;SDS011;64204;13.766;100.702;2022-12-10T07:55:06;9.48;;;6.47;;
73130;SDS011;64204;13.766;100.702;2022-12-10T07:57:33;12.63;;;8.05;;
73130;SDS011;64204;13.766;100.702;2022-12-10T07:59:59;12.15;;;7.85;;
73130;SDS011;64204;13.766;100.702;2022-12-10T08:05:21;17.83;;;8.85;;
73130;SDS011;64204;13.766;100.702;2022-12-10T08:07:48;13.93;;;8.85;;
73130;SDS011;64204;13.766;100.702;2022-12-10T08:10:15;11.48;;;7.93;;
73130;SDS011;64204;13.766;100.702;2022-12-10T08:12:44;18.05;;;8.63;;
73130;SDS011;64204;13.766;100.702;2022-12-10T08:15:11;9.38;;;8.00;;
73130;SDS011;64204;13.766;100.702;2022-12-10T08:17:37;13.60;;;8.57;;
73130;SDS011;64204;13.766;100.702;2022-12-10T08:20:04;11.45;;;8.60;;
73130;SDS011;64204;13.766;100.702;2022-12-10T08:22:32;9.98;;;7.90;;
73130;SDS011;64204;13.766;100.702;2022-12-10T08:24:59;12.95;;;7.97;;
73130;SDS011;64204;13.766;100.702;2022-12-10T08:27:26;14.93;;;7.97;;
73130;SDS011;64204;13.766;100.702;2022-12-10T08:29:53;10.10;;;8.18;;
73130;SDS011;64204;13.766;100.702;2022-12-10T08:32:23;8.88;;;7.22;;
73130;SDS011;64204;13.766;100.702;2022-12-10T08:34:50;13.05;;;7.93;;
73130;SDS011;64204;13.766;100.702;2022-12-10T08:37:16;13.27;;;8.85;;
73130;SDS011;64204;13.766;100.702;2022-12-10T08:39:43;15.20;;;7.85;;
73130;SDS011;64204;13.766;100.702;2022-12-10T08:42:10;12.05;;;7.70;;
73130;SDS011;64204;13.766;100.702;2022-12-10T08:44:37;10.32;;;6.90;;
73130;SDS011;64204;13.766;100.702;2022-12-10T08:47:03;12.85;;;8.32;;
73130;SDS011;64204;13.766;100.702;2022-12-10T08:49:31;10.02;;;7.57;;
73130;SDS011;64204;13.766;100.702;2022-12-10T08:51:57;14.05;;;7.22;;
73130;SDS011;64204;13.766;100.702;2022-12-10T08:54:24;12.70;;;7.75;;
73130;SDS011;64204;13.766;100.702;2022-12-10T08:56:51;10.50;;;6.75;;
73130;SDS011;64204;13.766;100.702;2022-12-10T08:59:18;21.40;;;7.78;;
73130;SDS011;64204;13.766;100.702;2022-12-10T09:01:44;16.35;;;7.20;;
73130;SDS011;64204;13.766;100.702;2022-12-10T09:04:11;10.88;;;7.28;;
73130;SDS011;64204;13.766;100.702;2022-12-10T09:06:39;12.43;;;7.18;;
73130;SDS011;64204;13.766;100.702;2022-12-10T09:09:05;10.55;;;7.10;;
73130;SDS011;64204;13.766;100.702;2022-12-10T09:11:33;14.40;;;6.45;;
73130;SDS011;64204;13.766;100.702;2022-12-10T09:16:34;11.52;;;6.70;;
73130;SDS011;64204;13.766;100.702;2022-12-10T09:19:02;10.13;;;6.53;;
73130;SDS011;64204;13.766;100.702;2022-12-10T09:21:29;12.38;;;6.05;;
73130;SDS011;64204;13.766;100.702;2022-12-10T09:23:56;9.60;;;6.47;;
73130;SDS011;64204;13.766;100.702;2022-12-10T09:26:23;10.48;;;7.10;;
73130;SDS011;64204;13.766;100.702;2022-12-10T09:28:50;8.00;;;6.38;;
73130;SDS011;64204;13.766;100.702;2022-12-10T09:31:18;25.05;;;8.43;;
73130;SDS011;64204;13.766;100.702;2022-12-10T09:33:45;10.77;;;6.22;;
73130;SDS011;64204;13.766;100.702;2022-12-10T09:36:13;9.73;;;5.60;;
73130;SDS011;64204;13.766;100.702;2022-12-10T09:38:42;9.73;;;6.13;;
73130;SDS011;64204;13.766;100.702;2022-12-10T09:44:07;11.52;;;6.00;;
73130;SDS011;64204;13.766;100.702;2022-12-10T09:52:34;8.57;;;5.35;;
73130;SDS011;64204;13.766;100.702;2022-12-10T09:55:05;9.38;;;5.50;;
73130;SDS011;64204;13.766;100.702;2022-12-10T09:57:39;12.30;;;6.45;;
73130;SDS011;64204;13.766;100.702;2022-12-10T10:00:30;19.20;;;6.72;;
73130;SDS011;64204;13.766;100.702;2022-12-10T10:03:03;9.63;;;5.88;;
73130;SDS011;64204;13.766;100.702;2022-12-10T10:05:38;14.20;;;6.50;;
73130;SDS011;64204;13.766;100.702;2022-12-10T10:08:12;11.07;;;6.68;;
73130;SDS011;64204;13.766;100.702;2022-12-10T10:10:41;9.27;;;5.85;;
73130;SDS011;64204;13.766;100.702;2022-12-10T10:19:01;10.25;;;5.25;;
73130;SDS011;64204;13.766;100.702;2022-12-10T10:21:32;9.63;;;5.90;;
73130;SDS011;64204;13.766;100.702;2022-12-10T10:24:02;9.02;;;5.88;;
73130;SDS011;64204;13.766;100.702;2022-12-10T10:26:30;10.68;;;8.15;;
73130;SDS011;64204;13.766;100.702;2022-12-10T10:28:58;12.43;;;8.48;;
73130;SDS011;64204;13.766;100.702;2022-12-10T10:31:35;11.18;;;6.53;;
73130;SDS011;64204;13.766;100.702;2022-12-10T10:34:18;9.50;;;6.65;;
73130;SDS011;64204;13.766;100.702;2022-12-10T10:36:47;9.35;;;6.03;;
73130;SDS011;64204;13.766;100.702;2022-12-10T10:39:27;11.63;;;6.38;;
73130;SDS011;64204;13.766;100.702;2022-12-10T10:41:56;9.35;;;5.68;;
73130;SDS011;64204;13.766;100.702;2022-12-10T10:44:27;8.43;;;5.93;;
73130;SDS011;64204;13.766;100.702;2022-12-10T10:46:59;8.82;;;5.95;;
73130;SDS011;64204;13.766;100.702;2022-12-10T10:49:27;9.20;;;5.55;;
73130;SDS011;64204;13.766;100.702;2022-12-10T10:52:04;10.95;;;5.63;;
73130;SDS011;64204;13.766;100.702;2022-12-10T10:54:40;6.68;;;5.03;;
73130;SDS011;64204;13.766;100.702;2022-12-10T10:57:27;7.55;;;4.82;;
73130;SDS011;64204;13.766;100.702;2022-12-10T11:00:04;7.00;;;4.60;;
73130;SDS011;64204;13.766;100.702;2022-12-10T11:02:34;7.13;;;5.22;;
73130;SDS011;64204;13.766;100.702;2022-12-10T11:05:38;6.45;;;5.00;;
73130;SDS011;64204;13.766;100.702;2022-12-10T11:08:02;8.85;;;5.97;;
73130;SDS011;64204;13.766;100.702;2022-12-10T11:10:36;7.22;;;5.53;;
73130;SDS011;64204;13.766;100.702;2022-12-10T11:13:15;9.77;;;5.78;;
73130;SDS011;64204;13.766;100.702;2022-12-10T11:15:56;13.05;;;6.78;;
73130;SDS011;64204;13.766;100.702;2022-12-10T11:18:43;11.35;;;5.97;;
73130;SDS011;64204;13.766;100.702;2022-12-10T11:21:31;8.90;;;5.60;;
73130;SDS011;64204;13.766;100.702;2022-12-10T11:38:22;13.77;;;7.78;;
73130;SDS011;64204;13.766;100.702;2022-12-10T11:41:18;14.20;;;7.15;;
73130;SDS011;64204;13.766;100.702;2022-12-10T11:44:10;18.45;;;8.32;;
73130;SDS011;64204;13.766;100.702;2022-12-10T11:46:57;22.48;;;8.48;;
73130;SDS011;64204;13.766;100.702;2022-12-10T11:49:53;15.45;;;8.60;;
73130;SDS011;64204;13.766;100.702;2022-12-10T11:52:41;16.80;;;7.57;;
73130;SDS011;64204;13.766;100.702;2022-12-10T11:55:27;13.88;;;7.97;;
73130;SDS011;64204;13.766;100.702;2022-12-10T12:01:24;17.85;;;8.43;;
73130;SDS011;64204;13.766;100.702;2022-12-10T12:07:11;17.88;;;8.30;;
73130;SDS011;64204;13.766;100.702;2022-12-10T12:09:57;13.05;;;7.55;;
73130;SDS011;64204;13.766;100.702;2022-12-10T12:15:57;12.20;;;7.65;;
73130;SDS011;64204;13.766;100.702;2022-12-10T12:18:43;19.58;;;10.23;;
73130;SDS011;64204;13.766;100.702;2022-12-10T12:21:16;20.13;;;10.07;;
73130;SDS011;64204;13.766;100.702;2022-12-10T12:23:48;17.75;;;8.50;;
73130;SDS011;64204;13.766;100.702;2022-12-10T12:26:32;13.70;;;8.20;;
73130;SDS011;64204;13.766;100.702;2022-12-10T12:32:16;13.90;;;8.77;;
73130;SDS011;64204;13.766;100.702;2022-12-10T12:37:48;16.27;;;9.35;;
73130;SDS011;64204;13.766;100.702;2022-12-10T12:40:29;15.50;;;9.25;;
73130;SDS011;64204;13.766;100.702;2022-12-10T12:43:10;24.55;;;12.10;;
73130;SDS011;64204;13.766;100.702;2022-12-10T12:45:41;19.08;;;10.27;;
73130;SDS011;64204;13.766;100.702;2022-12-10T12:48:23;17.65;;;10.30;;
73130;SDS011;64204;13.766;100.702;2022-12-10T12:51:12;22.35;;;12.43;;
73130;SDS011;64204;13.766;100.702;2022-12-10T12:53:45;24.52;;;13.35;;
73130;SDS011;64204;13.766;100.702;2022-12-10T12:59:11;26.33;;;13.68;;
73130;SDS011;64204;13.766;100.702;2022-12-10T13:01:54;20.25;;;12.23;;
73130;SDS011;64204;13.766;100.702;2022-12-10T13:04:42;28.13;;;15.00;;
73130;SDS011;64204;13.766;100.702;2022-12-10T13:10:17;22.83;;;13.95;;
73130;SDS011;64204;13.766;100.702;2022-12-10T13:12:49;19.88;;;12.57;;
73130;SDS011;64204;13.766;100.702;2022-12-10T13:15:20;24.30;;;13.57;;
73130;SDS011;64204;13.766;100.702;2022-12-10T13:24:07;19.33;;;11.88;;
73130;SDS011;64204;13.766;100.702;2022-12-10T13:26:36;21.75;;;11.80;;
73130;SDS011;64204;13.766;100.702;2022-12-10T13:29:29;23.10;;;12.20;;
73130;SDS011;64204;13.766;100.702;2022-12-10T13:35:16;39.35;;;24.35;;
73130;SDS011;64204;13.766;100.702;2022-12-10T13:37:57;25.80;;;16.33;;
73130;SDS011;64204;13.766;100.702;2022-12-10T13:40:41;26.05;;;15.32;;
73130;SDS011;64204;13.766;100.702;2022-12-10T13:43:35;20.98;;;14.20;;
73130;SDS011;64204;13.766;100.702;2022-12-10T13:46:31;20.50;;;14.15;;
73130;SDS011;64204;13.766;100.702;2022-12-10T13:49:03;20.90;;;13.68;;
73130;SDS011;64204;13.766;100.702;2022-12-10T13:54:39;23.35;;;15.60;;
73130;SDS011;64204;13.766;100.702;2022-12-10T14:03:19;19.52;;;12.93;;
73130;SDS011;64204;13.766;100.702;2022-12-10T14:06:12;28.23;;;13.82;;
73130;SDS011;64204;13.766;100.702;2022-12-10T14:08:52;19.30;;;12.15;;
73130;SDS011;64204;13.766;100.702;2022-12-10T14:11:40;21.88;;;13.10;;
73130;SDS011;64204;13.766;100.702;2022-12-10T14:14:17;24.27;;;14.35;;
73130;SDS011;64204;13.766;100.702;2022-12-10T14:17:06;21.38;;;12.48;;
73130;SDS011;64204;13.766;100.702;2022-12-10T14:19:45;26.65;;;16.85;;
73130;SDS011;64204;13.766;100.702;2022-12-10T14:22:16;28.92;;;17.75;;
73130;SDS011;64204;13.766;100.702;2022-12-10T14:24:46;21.52;;;14.52;;
73130;SDS011;64204;13.766;100.702;2022-12-10T14:27:19;26.17;;;17.33;;
73130;SDS011;64204;13.766;100.702;2022-12-10T14:29:52;22.65;;;13.90;;
73130;SDS011;64204;13.766;100.702;2022-12-10T14:32:42;24.38;;;14.77;;
73130;SDS011;64204;13.766;100.702;2022-12-10T14:35:17;23.45;;;15.27;;
73130;SDS011;64204;13.766;100.702;2022-12-10T14:37:47;21.67;;;14.43;;
73130;SDS011;64204;13.766;100.702;2022-12-10T14:43:11;29.50;;;15.65;;
73130;SDS011;64204;13.766;100.702;2022-12-10T14:45:43;24.00;;;15.95;;
73130;SDS011;64204;13.766;100.702;2022-12-10T14:48:18;19.05;;;12.98;;
73130;SDS011;64204;13.766;100.702;2022-12-10T14:50:45;28.00;;;15.27;;
73130;SDS011;64204;13.766;100.702;2022-12-10T14:53:17;28.75;;;16.20;;
73130;SDS011;64204;13.766;100.702;2022-12-10T14:55:46;26.08;;;14.75;;
73130;SDS011;64204;13.766;100.702;2022-12-10T14:58:19;19.10;;;12.98;;
73130;SDS011;64204;13.766;100.702;2022-12-10T15:01:03;24.77;;;15.30;;
73130;SDS011;64204;13.766;100.702;2022-12-10T15:03:31;27.38;;;16.20;;
73130;SDS011;64204;13.766;100.702;2022-12-10T15:06:01;27.65;;;15.65;;
73130;SDS011;64204;13.766;100.702;2022-12-10T15:08:32;24.27;;;16.20;;
73130;SDS011;64204;13.766;100.702;2022-12-10T15:10:59;27.92;;;17.83;;
73130;SDS011;64204;13.766;100.702;2022-12-10T15:13:37;31.40;;;18.40;;
73130;SDS011;64204;13.766;100.702;2022-12-10T15:16:06;23.70;;;14.45;;
73130;SDS011;64204;13.766;100.702;2022-12-10T15:18:40;29.70;;;18.52;;
73130;SDS011;64204;13.766;100.702;2022-12-10T15:26:46;20.45;;;13.27;;
73130;SDS011;64204;13.766;100.702;2022-12-10T15:34:55;27.75;;;15.52;;
73130;SDS011;64204;13.766;100.702;2022-12-10T15:37:34;29.13;;;17.23;;
73130;SDS011;64204;13.766;100.702;2022-12-10T15:40:05;27.25;;;17.02;;
73130;SDS011;64204;13.766;100.702;2022-12-10T15:42:45;27.25;;;16.75;;
73130;SDS011;64204;13.766;100.702;2022-12-10T15:48:08;24.60;;;16.02;;
73130;SDS011;64204;13.766;100.702;2022-12-10T15:50:38;25.40;;;18.40;;
73130;SDS011;64204;13.766;100.702;2022-12-10T15:53:10;28.52;;;17.27;;
73130;SDS011;64204;13.766;100.702;2022-12-10T15:55:37;27.20;;;15.48;;
73130;SDS011;64204;13.766;100.702;2022-12-10T15:58:13;27.58;;;17.35;;
73130;SDS011;64204;13.766;100.702;2022-12-10T16:00:43;29.42;;;17.13;;
73130;SDS011;64204;13.766;100.702;2022-12-10T16:03:15;26.10;;;15.35;;
73130;SDS011;64204;13.766;100.702;2022-12-10T16:05:45;30.60;;;18.48;;
73130;SDS011;64204;13.766;100.702;2022-12-10T16:08:24;26.27;;;17.33;;
73130;SDS011;64204;13.766;100.702;2022-12-10T16:10:59;23.23;;;15.80;;
73130;SDS011;64204;13.766;100.702;2022-12-10T16:13:39;24.63;;;14.60;;
73130;SDS011;64204;13.766;100.702;2022-12-10T16:16:10;25.40;;;15.32;;
73130;SDS011;64204;13.766;100.702;2022-12-10T16:18:38;27.40;;;16.70;;
73130;SDS011;64204;13.766;100.702;2022-12-10T16:21:10;23.80;;;14.88;;
73130;SDS011;64204;13.766;100.702;2022-12-10T16:23:37;28.42;;;18.02;;
73130;SDS011;64204;13.766;100.702;2022-12-10T16:28:51;21.65;;;14.45;;
73130;SDS011;64204;13.766;100.702;2022-12-10T16:31:20;33.13;;;18.98;;
73130;SDS011;64204;13.766;100.702;2022-12-10T16:33:52;31.13;;;18.48;;
73130;SDS011;64204;13.766;100.702;2022-12-10T16:36:21;29.10;;;17.30;;
73130;SDS011;64204;13.766;100.702;2022-12-10T16:38:48;27.33;;;17.05;;
73130;SDS011;64204;13.766;100.702;2022-12-10T16:41:19;23.60;;;15.63;;
73130;SDS011;64204;13.766;100.702;2022-12-10T16:43:48;27.77;;;16.65;;
73130;SDS011;64204;13.766;100.702;2022-12-10T16:46:14;21.33;;;14.55;;